| time (UTC) | temp C | wind direction | speed KPH | gust KPH | rain 1hr cm | rain 24hr cm | rain mn cm | humidity % | barometer mb |
| 20260509223628 | 20 | 44 | 0.0 | 4.8 | 0.00 | 0.00 | 0.00 | 47 | 1007.6 |
| 20260509222555 | 20 | 67 | 0.0 | 3.2 | 0.00 | 0.00 | 0.00 | 48 | 1007.5 |
| 20260509221606 | 20 | 75 | 0.0 | 0.0 | 0.00 | 0.00 | 0.00 | 50 | 1007.5 |
| 20260509215447 | 19 | 87 | 0.0 | 0.0 | 0.00 | 0.00 | 0.00 | 53 | 1007.5 |
| 20260509214510 | 19 | 87 | 0.0 | 0.0 | 0.00 | 0.00 | 0.00 | 54 | 1007.4 |
| 20260509213511 | 19 | 87 | 0.0 | 0.0 | 0.00 | 0.00 | 0.00 | 48 | 1007.3 |
| 20260509212531 | 20 | 87 | 0.0 | 1.6 | 0.00 | 0.00 | 0.00 | 47 | 1007.2 |
| 20260509211541 | 20 | 83 | 0.0 | 0.0 | 0.00 | 0.00 | 0.00 | 49 | 1007.1 |
| 20260509210559 | 20 | 91 | 0.0 | 0.0 | 0.00 | 0.00 | 0.00 | 49 | 1007.1 |
| 20260509205534 | 19 | 90 | 0.0 | 0.0 | 0.00 | 0.00 | 0.00 | 50 | 1007.0 |
| 20260509204555 | 19 | 93 | 0.0 | 0.0 | 0.00 | 0.00 | 0.00 | 51 | 1006.9 |
| 20260509202443 | 19 | 164 | 0.0 | 0.0 | 0.00 | 0.00 | 0.00 | 50 | 1006.9 |
| 20260509201430 | 18 | 170 | 0.0 | 0.0 | 0.00 | 0.00 | 0.00 | 51 | 1006.8 |
| 20260509195336 | 18 | 235 | 1.6 | 9.7 | 0.00 | 0.00 | 0.00 | 53 | 1006.7 |
| 20260509194309 | 18 | 253 | 0.0 | 4.8 | 0.00 | 0.00 | 0.00 | 53 | 1006.9 |
| 20260509193326 | 18 | 251 | 1.6 | 12.9 | 0.00 | 0.00 | 0.00 | 53 | 1007.1 |
| 20260509192257 | 18 | 281 | 0.0 | 6.4 | 0.00 | 0.00 | 0.00 | 53 | 1007.1 |
| 20260509191257 | 18 | 284 | 1.6 | 6.4 | 0.00 | 0.00 | 0.00 | 54 | 1007.3 |
| 20260509190255 | 18 | 244 | 9.7 | 20.9 | 0.00 | 0.00 | 0.00 | 52 | 1007.1 |
| 20260509184158 | 19 | 285 | 4.8 | 14.5 | 0.00 | 0.00 | 0.00 | 50 | 1007.2 |
| 20260509183213 | 19 | 269 | 0.0 | 14.5 | 0.00 | 0.00 | 0.00 | 50 | 1007.2 |
| 20260509182212 | 18 | 295 | 6.4 | 14.5 | 0.00 | 0.00 | 0.00 | 51 | 1007.4 |
| 20260509181156 | 18 | 265 | 4.8 | 12.9 | 0.00 | 0.00 | 0.00 | 49 | 1007.5 |
| 20260509180131 | 18 | 259 | 0.0 | 11.3 | 0.00 | 0.00 | 0.00 | 49 | 1007.8 |
| 20260509174019 | 17 | 90 | 0.0 | 0.0 | 0.00 | 0.00 | 0.00 | 52 | 1008.1 |
| 20260509173026 | 17 | 86 | 0.0 | 0.0 | 0.00 | 0.00 | 0.00 | 53 | 1008.3 |
| 20260509172048 | 17 | 142 | 0.0 | 0.0 | 0.00 | 0.00 | 0.00 | 53 | 1008.3 |
| 20260509171043 | 17 | 250 | 0.0 | 0.0 | 0.00 | 0.00 | 0.00 | 55 | 1008.5 |
| 20260509164919 | 16 | 94 | 0.0 | 0.0 | 0.00 | 0.00 | 0.00 | 58 | 1008.5 |
| 20260509163912 | 16 | 94 | 0.0 | 0.0 | 0.00 | 0.00 | 0.00 | 56 | 1008.8 |
| 20260509162848 | 16 | 94 | 0.0 | 0.0 | 0.00 | 0.00 | 0.00 | 55 | 1008.7 |
| 20260509161843 | 16 | 94 | 0.0 | 0.0 | 0.00 | 0.00 | 0.00 | 55 | 1008.8 |
| 20260509160859 | 16 | 94 | 0.0 | 0.0 | 0.00 | 0.00 | 0.00 | 56 | 1008.8 |
| 20260509155836 | 16 | 94 | 0.0 | 0.0 | 0.00 | 0.00 | 0.00 | 56 | 1008.8 |
| 20260509153639 | 16 | 88 | 0.0 | 0.0 | 0.00 | 0.00 | 0.00 | 56 | 1008.4 |
| 20260509152647 | 16 | 88 | 0.0 | 0.0 | 0.00 | 0.00 | 0.00 | 56 | 1008.4 |
| 20260509151632 | 16 | 88 | 0.0 | 0.0 | 0.00 | 0.00 | 0.00 | 54 | 1008.6 |
| 20260509150646 | 16 | 88 | 0.0 | 0.0 | 0.00 | 0.00 | 0.00 | 55 | 1008.8 |
| 20260509145657 | 15 | 88 | 0.0 | 0.0 | 0.00 | 0.00 | 0.00 | 58 | 1008.8 |
| 20260509142420 | 15 | 85 | 0.0 | 0.0 | 0.00 | 0.00 | 0.00 | 60 | 1008.6 |
| 20260509135115 | 14 | 45 | 0.0 | 0.0 | 0.00 | 0.00 | 0.00 | 64 | 1009.3 |
| 20260509134116 | 13 | 45 | 0.0 | 0.0 | 0.00 | 0.00 | 0.00 | 66 | 1009.4 |
| 20260509133135 | 13 | 341 | 0.0 | 0.0 | 0.00 | 0.00 | 0.00 | 66 | 1009.5 |
| 20260509132127 | 13 | 341 | 0.0 | 0.0 | 0.00 | 0.00 | 0.00 | 65 | 1009.3 |
| 20260509131147 | 13 | 341 | 0.0 | 0.0 | 0.00 | 0.00 | 0.00 | 64 | 1009.2 |
| 20260509124948 | 12 | 341 | 0.0 | 0.0 | 0.00 | 0.00 | 0.00 | 64 | 1009.1 |
| 20260509123919 | 13 | 341 | 0.0 | 0.0 | 0.00 | 0.00 | 0.00 | 62 | 1009.1 |
| 20260509122911 | 12 | 341 | 0.0 | 0.0 | 0.00 | 0.00 | 0.00 | 61 | 1009.3 |
| 20260509121931 | 12 | 341 | 0.0 | 0.0 | 0.00 | 0.00 | 0.00 | 61 | 1009.4 |
| 20260509120923 | 12 | 341 | 0.0 | 0.0 | 0.00 | 0.00 | 0.00 | 61 | 1009.4 |
| 20260509112530 | 12 | 341 | 0.0 | 0.0 | 0.00 | 0.00 | 0.00 | 61 | 1009.4 |
| 20260509111512 | 12 | 341 | 0.0 | 0.0 | 0.00 | 0.00 | 0.00 | 60 | 1009.2 |
| 20260509110446 | 12 | 338 | 0.0 | 3.2 | 0.00 | 0.00 | 0.00 | 59 | 1009.2 |
| 20260509105438 | 12 | 301 | 0.0 | 0.0 | 0.00 | 0.00 | 0.00 | 59 | 1009.1 |
| 20260509103321 | 12 | 301 | 0.0 | 0.0 | 0.00 | 0.00 | 0.00 | 58 | 1009.2 |
| 20260509102252 | 12 | 301 | 0.0 | 0.0 | 0.00 | 0.00 | 0.00 | 58 | 1009.1 |
| 20260509101245 | 12 | 301 | 0.0 | 0.0 | 0.00 | 0.00 | 0.00 | 57 | 1009.0 |
| 20260509100240 | 12 | 301 | 0.0 | 0.0 | 0.00 | 0.00 | 0.00 | 57 | 1009.0 |
| 20260509095255 | 12 | 301 | 0.0 | 0.0 | 0.00 | 0.00 | 0.00 | 57 | 1009.0 |
| 20260509094233 | 12 | 301 | 0.0 | 0.0 | 0.00 | 0.00 | 0.00 | 56 | 1009.2 |
| 20260509093226 | 12 | 301 | 0.0 | 0.0 | 0.00 | 0.00 | 0.00 | 56 | 1009.3 |
| 20260509092224 | 13 | 301 | 0.0 | 0.0 | 0.00 | 0.00 | 0.00 | 55 | 1009.4 |
| 20260509091205 | 13 | 0 | 0.0 | 3.2 | 0.00 | 0.00 | 0.00 | 55 | 1009.3 |
| 20260509090222 | 13 | 297 | 0.0 | 0.0 | 0.00 | 0.00 | 0.00 | 55 | 1009.2 |
| 20260509085152 | 12 | 297 | 0.0 | 0.0 | 0.00 | 0.00 | 0.00 | 54 | 1009.4 |
| 20260509084158 | 13 | 296 | 0.0 | 3.2 | 0.00 | 0.00 | 0.00 | 54 | 1009.4 |
| 20260509083219 | 13 | 0 | 0.0 | 4.8 | 0.00 | 0.00 | 0.00 | 53 | 1009.5 |
| 20260509081108 | 13 | 296 | 0.0 | 4.8 | 0.00 | 0.00 | 0.00 | 52 | 1009.5 |
| 20260509080044 | 13 | 297 | 0.0 | 0.0 | 0.00 | 0.00 | 0.00 | 52 | 1009.7 |
| 20260509075020 | 13 | 296 | 0.0 | 0.0 | 0.00 | 0.00 | 0.00 | 52 | 1009.8 |
| 20260509074025 | 13 | 296 | 0.0 | 0.0 | 0.00 | 0.00 | 0.00 | 52 | 1009.8 |
| 20260509073018 | 13 | 304 | 0.0 | 0.0 | 0.00 | 0.00 | 0.00 | 52 | 1009.8 |
| 20260509072029 | 13 | 317 | 0.0 | 3.2 | 0.00 | 0.00 | 0.00 | 51 | 1010.0 |
| 20260509064833 | 12 | 293 | 0.0 | 4.8 | 0.00 | 0.00 | 0.00 | 52 | 1010.1 |
| 20260509063814 | 12 | 292 | 0.0 | 3.2 | 0.00 | 0.00 | 0.00 | 53 | 1010.1 |
| 20260509061643 | 12 | 293 | 0.0 | 9.7 | 0.00 | 0.00 | 0.00 | 53 | 1010.4 |
| 20260509055503 | 12 | 303 | 0.0 | 9.7 | 0.00 | 0.00 | 0.00 | 53 | 1010.6 |
| 20260509052237 | 13 | 326 | 0.0 | 6.4 | 0.00 | 0.00 | 0.00 | 53 | 1010.7 |
| 20260509050053 | 12 | 306 | 0.0 | 3.2 | 0.00 | 0.00 | 0.00 | 54 | 1010.9 |
| 20260509045049 | 13 | 292 | 0.0 | 1.6 | 0.00 | 0.00 | 0.00 | 53 | 1010.9 |
| 20260509044015 | 12 | 280 | 0.0 | 0.0 | 0.00 | 0.00 | 0.00 | 54 | 1010.7 |
| 20260509042948 | 12 | 276 | 0.0 | 0.0 | 0.00 | 0.00 | 0.00 | 54 | 1010.7 |
| 20260509041954 | 12 | 276 | 0.0 | 0.0 | 0.00 | 0.00 | 0.00 | 55 | 1010.7 |
| 20260509040948 | 12 | 276 | 0.0 | 0.0 | 0.00 | 0.00 | 0.00 | 54 | 1010.8 |
| 20260509035932 | 12 | 276 | 0.0 | 0.0 | 0.00 | 0.00 | 0.00 | 55 | 1010.8 |
| 20260509034944 | 12 | 276 | 0.0 | 0.0 | 0.00 | 0.00 | 0.00 | 55 | 1010.8 |
| 20260509033947 | 12 | 276 | 0.0 | 0.0 | 0.00 | 0.00 | 0.00 | 55 | 1010.9 |
| 20260509031817 | 12 | 273 | 0.0 | 0.0 | 0.00 | 0.00 | 0.00 | 55 | 1011.1 |
| 20260509030802 | 12 | 273 | 0.0 | 0.0 | 0.00 | 0.00 | 0.00 | 54 | 1011.2 |
| 20260509025824 | 13 | 273 | 0.0 | 0.0 | 0.00 | 0.00 | 0.00 | 52 | 1011.2 |
| 20260509024804 | 13 | 273 | 0.0 | 0.0 | 0.00 | 0.00 | 0.00 | 51 | 1011.0 |
| 20260509023820 | 13 | 273 | 0.0 | 0.0 | 0.00 | 0.00 | 0.00 | 52 | 1011.2 |
| 20260509022837 | 13 | 273 | 0.0 | 0.0 | 0.00 | 0.00 | 0.00 | 50 | 1011.1 |
| 20260509021830 | 14 | 273 | 0.0 | 0.0 | 0.00 | 0.00 | 0.00 | 49 | 1011.0 |
| 20260509020805 | 14 | 273 | 0.0 | 0.0 | 0.00 | 0.00 | 0.00 | 48 | 1011.1 |
| 20260509014719 | 15 | 281 | 1.6 | 8.0 | 0.00 | 0.00 | 0.00 | 47 | 1010.8 |
| 20260509013703 | 15 | 286 | 0.0 | 8.0 | 0.00 | 0.00 | 0.00 | 46 | 1010.9 |
| 20260509012646 | 15 | 285 | 0.0 | 4.8 | 0.00 | 0.00 | 0.00 | 45 | 1011.1 |
| 20260509011700 | 15 | 286 | 0.0 | 0.0 | 0.00 | 0.00 | 0.00 | 45 | 1011.1 |
| 20260509010655 | 15 | 286 | 0.0 | 4.8 | 0.00 | 0.00 | 0.00 | 44 | 1010.9 |
| 20260509005702 | 15 | 289 | 0.0 | 0.0 | 0.00 | 0.00 | 0.00 | 43 | 1010.9 |
| 20260509003606 | 15 | 289 | 0.0 | 0.0 | 0.00 | 0.00 | 0.00 | 43 | 1011.1 |
| 20260509002622 | 15 | 289 | 0.0 | 6.4 | 0.00 | 0.00 | 0.00 | 42 | 1010.9 |
| 20260509001550 | 16 | 285 | 1.6 | 6.4 | 0.00 | 0.00 | 0.00 | 42 | 1010.9 |
| 20260509000532 | 16 | 269 | 1.6 | 6.4 | 0.00 | 0.00 | 0.00 | 41 | 1010.7 |
| 20260508235511 | 17 | 279 | 0.0 | 6.4 | 0.00 | 0.00 | 0.00 | 38 | 1010.7 |
| 20260508234450 | 17 | 76 | 0.0 | 0.0 | 0.00 | 0.00 | 0.00 | 37 | 1010.5 |
| 20260508233439 | 17 | 76 | 0.0 | 0.0 | 0.00 | 0.00 | 0.00 | 37 | 1010.5 |
| 20260508232435 | 17 | 76 | 0.0 | 3.2 | 0.00 | 0.00 | 0.00 | 37 | 1010.4 |
| 20260508231419 | 18 | 51 | 0.0 | 6.4 | 0.00 | 0.00 | 0.00 | 36 | 1010.3 |